sensor_id;sensor_type;location;lat;lon;timestamp;P1;durP1;ratioP1;P2;durP2;ratioP2
74612;SDS011;63119;51.788;8.824;2023-06-14T00:02:04;3.03;;;2.00;;
74612;SDS011;63119;51.788;8.824;2023-06-14T00:04:29;5.13;;;2.13;;
74612;SDS011;63119;51.788;8.824;2023-06-14T00:06:55;2.97;;;1.65;;
74612;SDS011;63119;51.788;8.824;2023-06-14T00:09:21;5.68;;;2.40;;
74612;SDS011;63119;51.788;8.824;2023-06-14T00:11:47;4.38;;;2.10;;
74612;SDS011;63119;51.788;8.824;2023-06-14T00:14:12;2.63;;;1.80;;
74612;SDS011;63119;51.788;8.824;2023-06-14T00:16:38;5.72;;;1.95;;
74612;SDS011;63119;51.788;8.824;2023-06-14T00:19:07;3.50;;;2.28;;
74612;SDS011;63119;51.788;8.824;2023-06-14T00:21:33;3.70;;;2.25;;
74612;SDS011;63119;51.788;8.824;2023-06-14T00:24:00;4.10;;;2.08;;
74612;SDS011;63119;51.788;8.824;2023-06-14T00:26:26;5.20;;;1.75;;
74612;SDS011;63119;51.788;8.824;2023-06-14T00:28:51;3.33;;;2.05;;
74612;SDS011;63119;51.788;8.824;2023-06-14T00:31:17;5.75;;;2.13;;
74612;SDS011;63119;51.788;8.824;2023-06-14T00:33:42;3.40;;;1.97;;
74612;SDS011;63119;51.788;8.824;2023-06-14T00:36:07;4.53;;;2.07;;
74612;SDS011;63119;51.788;8.824;2023-06-14T00:38:33;6.87;;;1.93;;
74612;SDS011;63119;51.788;8.824;2023-06-14T00:40:58;3.40;;;1.70;;
74612;SDS011;63119;51.788;8.824;2023-06-14T00:43:23;5.47;;;1.83;;
74612;SDS011;63119;51.788;8.824;2023-06-14T00:45:48;3.63;;;1.90;;
74612;SDS011;63119;51.788;8.824;2023-06-14T00:48:15;3.03;;;1.75;;
74612;SDS011;63119;51.788;8.824;2023-06-14T00:50:40;4.10;;;2.00;;
74612;SDS011;63119;51.788;8.824;2023-06-14T00:53:06;3.38;;;2.00;;
74612;SDS011;63119;51.788;8.824;2023-06-14T00:55:32;3.42;;;2.00;;
74612;SDS011;63119;51.788;8.824;2023-06-14T00:57:57;2.72;;;1.77;;
74612;SDS011;63119;51.788;8.824;2023-06-14T01:00:23;4.30;;;1.70;;
74612;SDS011;63119;51.788;8.824;2023-06-14T01:02:48;2.87;;;1.90;;
74612;SDS011;63119;51.788;8.824;2023-06-14T01:05:15;4.05;;;1.52;;
74612;SDS011;63119;51.788;8.824;2023-06-14T01:07:54;3.53;;;1.98;;
74612;SDS011;63119;51.788;8.824;2023-06-14T01:13:34;6.88;;;2.20;;
74612;SDS011;63119;51.788;8.824;2023-06-14T01:16:02;3.88;;;2.10;;
74612;SDS011;63119;51.788;8.824;2023-06-14T01:18:29;4.35;;;1.70;;
74612;SDS011;63119;51.788;8.824;2023-06-14T01:20:55;3.25;;;1.83;;
74612;SDS011;63119;51.788;8.824;2023-06-14T01:23:21;5.53;;;2.20;;
74612;SDS011;63119;51.788;8.824;2023-06-14T01:25:48;2.80;;;1.80;;
74612;SDS011;63119;51.788;8.824;2023-06-14T01:28:17;7.18;;;2.55;;
74612;SDS011;63119;51.788;8.824;2023-06-14T01:30:45;3.22;;;2.15;;
74612;SDS011;63119;51.788;8.824;2023-06-14T01:33:20;3.17;;;1.90;;
74612;SDS011;63119;51.788;8.824;2023-06-14T01:35:47;7.00;;;2.60;;
74612;SDS011;63119;51.788;8.824;2023-06-14T01:38:14;4.32;;;2.40;;
74612;SDS011;63119;51.788;8.824;2023-06-14T01:40:45;4.32;;;1.88;;
74612;SDS011;63119;51.788;8.824;2023-06-14T01:43:15;4.82;;;2.00;;
74612;SDS011;63119;51.788;8.824;2023-06-14T01:45:42;4.57;;;1.77;;
74612;SDS011;63119;51.788;8.824;2023-06-14T01:48:08;3.58;;;1.83;;
74612;SDS011;63119;51.788;8.824;2023-06-14T01:50:34;3.75;;;1.90;;
74612;SDS011;63119;51.788;8.824;2023-06-14T01:53:00;4.30;;;2.30;;
74612;SDS011;63119;51.788;8.824;2023-06-14T01:55:25;4.70;;;1.85;;
74612;SDS011;63119;51.788;8.824;2023-06-14T01:57:51;4.13;;;2.00;;
74612;SDS011;63119;51.788;8.824;2023-06-14T02:00:17;3.28;;;2.13;;
74612;SDS011;63119;51.788;8.824;2023-06-14T02:02:43;5.85;;;1.95;;
74612;SDS011;63119;51.788;8.824;2023-06-14T02:05:09;3.47;;;2.20;;
74612;SDS011;63119;51.788;8.824;2023-06-14T02:07:35;5.60;;;2.30;;
74612;SDS011;63119;51.788;8.824;2023-06-14T02:10:01;4.20;;;1.90;;
74612;SDS011;63119;51.788;8.824;2023-06-14T02:12:26;5.37;;;2.20;;
74612;SDS011;63119;51.788;8.824;2023-06-14T02:14:51;3.70;;;2.20;;
74612;SDS011;63119;51.788;8.824;2023-06-14T02:17:16;3.10;;;1.90;;
74612;SDS011;63119;51.788;8.824;2023-06-14T02:19:42;3.28;;;2.20;;
74612;SDS011;63119;51.788;8.824;2023-06-14T02:22:07;4.33;;;2.00;;
74612;SDS011;63119;51.788;8.824;2023-06-14T02:24:32;8.90;;;2.40;;
74612;SDS011;63119;51.788;8.824;2023-06-14T02:26:58;4.60;;;2.20;;
74612;SDS011;63119;51.788;8.824;2023-06-14T02:29:23;3.83;;;2.20;;
74612;SDS011;63119;51.788;8.824;2023-06-14T02:31:48;2.97;;;1.97;;
74612;SDS011;63119;51.788;8.824;2023-06-14T02:34:14;4.45;;;2.42;;
74612;SDS011;63119;51.788;8.824;2023-06-14T02:36:41;5.07;;;2.42;;
74612;SDS011;63119;51.788;8.824;2023-06-14T02:39:10;2.90;;;1.90;;
74612;SDS011;63119;51.788;8.824;2023-06-14T02:41:36;3.33;;;1.67;;
74612;SDS011;63119;51.788;8.824;2023-06-14T02:44:01;3.50;;;1.98;;
74612;SDS011;63119;51.788;8.824;2023-06-14T02:46:27;3.75;;;1.80;;
74612;SDS011;63119;51.788;8.824;2023-06-14T02:48:52;2.77;;;1.90;;
74612;SDS011;63119;51.788;8.824;2023-06-14T02:51:17;2.93;;;2.10;;
74612;SDS011;63119;51.788;8.824;2023-06-14T02:53:43;3.97;;;2.00;;
74612;SDS011;63119;51.788;8.824;2023-06-14T02:56:08;3.33;;;2.13;;
74612;SDS011;63119;51.788;8.824;2023-06-14T02:58:34;4.05;;;1.83;;
74612;SDS011;63119;51.788;8.824;2023-06-14T03:01:01;3.72;;;1.83;;
74612;SDS011;63119;51.788;8.824;2023-06-14T03:03:28;2.75;;;1.77;;
74612;SDS011;63119;51.788;8.824;2023-06-14T03:05:54;3.40;;;1.90;;
74612;SDS011;63119;51.788;8.824;2023-06-14T03:08:19;6.53;;;2.33;;
74612;SDS011;63119;51.788;8.824;2023-06-14T03:10:48;4.50;;;1.98;;
74612;SDS011;63119;51.788;8.824;2023-06-14T03:13:14;4.80;;;2.00;;
74612;SDS011;63119;51.788;8.824;2023-06-14T03:15:40;2.70;;;1.77;;
74612;SDS011;63119;51.788;8.824;2023-06-14T03:18:07;4.90;;;2.35;;
74612;SDS011;63119;51.788;8.824;2023-06-14T03:20:33;5.03;;;2.03;;
74612;SDS011;63119;51.788;8.824;2023-06-14T03:23:02;5.10;;;1.97;;
74612;SDS011;63119;51.788;8.824;2023-06-14T03:25:28;4.60;;;2.20;;
74612;SDS011;63119;51.788;8.824;2023-06-14T03:27:58;5.22;;;2.22;;
74612;SDS011;63119;51.788;8.824;2023-06-14T03:30:23;3.40;;;2.35;;
74612;SDS011;63119;51.788;8.824;2023-06-14T03:32:48;3.57;;;1.70;;
74612;SDS011;63119;51.788;8.824;2023-06-14T03:35:14;3.20;;;1.60;;
74612;SDS011;63119;51.788;8.824;2023-06-14T03:37:45;3.22;;;2.05;;
74612;SDS011;63119;51.788;8.824;2023-06-14T03:40:11;5.60;;;2.30;;
74612;SDS011;63119;51.788;8.824;2023-06-14T03:42:38;3.05;;;2.03;;
74612;SDS011;63119;51.788;8.824;2023-06-14T03:45:03;6.83;;;2.50;;
74612;SDS011;63119;51.788;8.824;2023-06-14T03:47:29;3.53;;;1.90;;
74612;SDS011;63119;51.788;8.824;2023-06-14T03:49:54;4.23;;;2.33;;
74612;SDS011;63119;51.788;8.824;2023-06-14T03:52:20;3.23;;;2.20;;
74612;SDS011;63119;51.788;8.824;2023-06-14T03:54:47;4.15;;;2.42;;
74612;SDS011;63119;51.788;8.824;2023-06-14T03:57:12;5.63;;;2.58;;
74612;SDS011;63119;51.788;8.824;2023-06-14T03:59:37;3.83;;;2.07;;
74612;SDS011;63119;51.788;8.824;2023-06-14T04:02:03;3.70;;;2.13;;
74612;SDS011;63119;51.788;8.824;2023-06-14T04:04:28;4.35;;;2.33;;
74612;SDS011;63119;51.788;8.824;2023-06-14T04:06:54;7.03;;;2.63;;
74612;SDS011;63119;51.788;8.824;2023-06-14T04:09:21;4.10;;;2.25;;
74612;SDS011;63119;51.788;8.824;2023-06-14T04:11:46;4.73;;;2.00;;
74612;SDS011;63119;51.788;8.824;2023-06-14T04:14:11;5.57;;;1.87;;
74612;SDS011;63119;51.788;8.824;2023-06-14T04:16:37;4.33;;;2.10;;
74612;SDS011;63119;51.788;8.824;2023-06-14T04:19:02;4.27;;;2.17;;
74612;SDS011;63119;51.788;8.824;2023-06-14T04:21:27;4.25;;;2.00;;
74612;SDS011;63119;51.788;8.824;2023-06-14T04:23:53;4.13;;;2.10;;
74612;SDS011;63119;51.788;8.824;2023-06-14T04:26:20;4.10;;;1.88;;
74612;SDS011;63119;51.788;8.824;2023-06-14T04:28:46;4.22;;;2.60;;
74612;SDS011;63119;51.788;8.824;2023-06-14T04:31:12;3.72;;;2.05;;
74612;SDS011;63119;51.788;8.824;2023-06-14T04:33:37;2.92;;;1.80;;
74612;SDS011;63119;51.788;8.824;2023-06-14T04:36:11;4.90;;;2.25;;
74612;SDS011;63119;51.788;8.824;2023-06-14T04:38:42;3.85;;;2.20;;
74612;SDS011;63119;51.788;8.824;2023-06-14T04:41:07;2.63;;;1.90;;
74612;SDS011;63119;51.788;8.824;2023-06-14T04:43:36;3.67;;;2.13;;
74612;SDS011;63119;51.788;8.824;2023-06-14T04:46:03;3.55;;;1.92;;
74612;SDS011;63119;51.788;8.824;2023-06-14T04:48:30;3.25;;;1.80;;
74612;SDS011;63119;51.788;8.824;2023-06-14T04:50:56;3.67;;;2.10;;
74612;SDS011;63119;51.788;8.824;2023-06-14T04:53:21;5.22;;;2.03;;
74612;SDS011;63119;51.788;8.824;2023-06-14T04:55:48;6.38;;;1.92;;
74612;SDS011;63119;51.788;8.824;2023-06-14T04:58:13;4.03;;;2.20;;
74612;SDS011;63119;51.788;8.824;2023-06-14T05:00:38;3.60;;;1.80;;
74612;SDS011;63119;51.788;8.824;2023-06-14T05:03:04;3.87;;;2.30;;
74612;SDS011;63119;51.788;8.824;2023-06-14T05:05:30;5.32;;;2.28;;
74612;SDS011;63119;51.788;8.824;2023-06-14T05:07:56;4.38;;;2.17;;
74612;SDS011;63119;51.788;8.824;2023-06-14T05:10:21;3.57;;;1.90;;
74612;SDS011;63119;51.788;8.824;2023-06-14T05:12:46;2.47;;;1.90;;
74612;SDS011;63119;51.788;8.824;2023-06-14T05:15:12;3.53;;;1.42;;
74612;SDS011;63119;51.788;8.824;2023-06-14T05:17:38;2.67;;;1.50;;
74612;SDS011;63119;51.788;8.824;2023-06-14T05:20:05;3.25;;;1.63;;
74612;SDS011;63119;51.788;8.824;2023-06-14T05:22:31;4.45;;;1.95;;
74612;SDS011;63119;51.788;8.824;2023-06-14T05:24:57;2.38;;;1.38;;
74612;SDS011;63119;51.788;8.824;2023-06-14T05:27:22;4.60;;;1.73;;
74612;SDS011;63119;51.788;8.824;2023-06-14T05:29:47;7.23;;;1.70;;
74612;SDS011;63119;51.788;8.824;2023-06-14T05:32:12;4.80;;;1.53;;
74612;SDS011;63119;51.788;8.824;2023-06-14T05:34:38;2.30;;;1.43;;
74612;SDS011;63119;51.788;8.824;2023-06-14T05:37:03;2.33;;;1.30;;
74612;SDS011;63119;51.788;8.824;2023-06-14T05:39:29;3.42;;;1.25;;
74612;SDS011;63119;51.788;8.824;2023-06-14T05:41:54;2.77;;;1.40;;
74612;SDS011;63119;51.788;8.824;2023-06-14T05:44:20;2.20;;;1.38;;
74612;SDS011;63119;51.788;8.824;2023-06-14T05:46:45;3.63;;;1.50;;
74612;SDS011;63119;51.788;8.824;2023-06-14T05:49:10;2.00;;;1.20;;
74612;SDS011;63119;51.788;8.824;2023-06-14T05:51:37;5.70;;;1.67;;
74612;SDS011;63119;51.788;8.824;2023-06-14T05:54:02;3.00;;;1.42;;
74612;SDS011;63119;51.788;8.824;2023-06-14T05:56:27;5.53;;;1.50;;
74612;SDS011;63119;51.788;8.824;2023-06-14T05:58:53;5.90;;;1.50;;
74612;SDS011;63119;51.788;8.824;2023-06-14T06:01:18;2.87;;;1.40;;
74612;SDS011;63119;51.788;8.824;2023-06-14T06:03:43;3.90;;;1.77;;
74612;SDS011;63119;51.788;8.824;2023-06-14T06:06:12;4.40;;;1.60;;
74612;SDS011;63119;51.788;8.824;2023-06-14T06:08:38;2.95;;;1.80;;
74612;SDS011;63119;51.788;8.824;2023-06-14T06:11:03;4.00;;;1.90;;
74612;SDS011;63119;51.788;8.824;2023-06-14T06:13:28;3.78;;;1.40;;
74612;SDS011;63119;51.788;8.824;2023-06-14T06:15:54;3.40;;;1.30;;
74612;SDS011;63119;51.788;8.824;2023-06-14T06:18:19;2.23;;;1.40;;
74612;SDS011;63119;51.788;8.824;2023-06-14T06:20:44;2.75;;;1.23;;
74612;SDS011;63119;51.788;8.824;2023-06-14T06:23:11;3.10;;;1.60;;
74612;SDS011;63119;51.788;8.824;2023-06-14T06:25:36;3.20;;;1.30;;
74612;SDS011;63119;51.788;8.824;2023-06-14T06:28:01;2.10;;;1.40;;
74612;SDS011;63119;51.788;8.824;2023-06-14T06:30:27;2.50;;;1.47;;
74612;SDS011;63119;51.788;8.824;2023-06-14T06:32:52;3.07;;;1.47;;
74612;SDS011;63119;51.788;8.824;2023-06-14T06:35:18;2.55;;;1.30;;
74612;SDS011;63119;51.788;8.824;2023-06-14T06:37:43;1.80;;;1.23;;
74612;SDS011;63119;51.788;8.824;2023-06-14T06:40:08;1.60;;;1.27;;
74612;SDS011;63119;51.788;8.824;2023-06-14T06:42:35;2.00;;;1.17;;
74612;SDS011;63119;51.788;8.824;2023-06-14T06:45:01;3.42;;;1.30;;
74612;SDS011;63119;51.788;8.824;2023-06-14T06:47:26;2.43;;;1.30;;
74612;SDS011;63119;51.788;8.824;2023-06-14T06:49:52;4.93;;;1.27;;
74612;SDS011;63119;51.788;8.824;2023-06-14T06:52:17;2.20;;;1.25;;
74612;SDS011;63119;51.788;8.824;2023-06-14T06:54:42;5.60;;;1.60;;
74612;SDS011;63119;51.788;8.824;2023-06-14T06:57:08;1.63;;;1.10;;
74612;SDS011;63119;51.788;8.824;2023-06-14T06:59:33;3.75;;;1.35;;
74612;SDS011;63119;51.788;8.824;2023-06-14T07:01:59;2.13;;;1.20;;
74612;SDS011;63119;51.788;8.824;2023-06-14T07:04:24;6.00;;;1.30;;
74612;SDS011;63119;51.788;8.824;2023-06-14T07:06:50;2.00;;;1.20;;
74612;SDS011;63119;51.788;8.824;2023-06-14T07:09:15;1.60;;;1.02;;
74612;SDS011;63119;51.788;8.824;2023-06-14T07:11:41;4.85;;;1.20;;
74612;SDS011;63119;51.788;8.824;2023-06-14T07:14:07;2.67;;;1.20;;
74612;SDS011;63119;51.788;8.824;2023-06-14T07:16:32;2.97;;;1.30;;
74612;SDS011;63119;51.788;8.824;2023-06-14T07:18:58;3.08;;;1.38;;
74612;SDS011;63119;51.788;8.824;2023-06-14T07:21:23;4.50;;;1.60;;
74612;SDS011;63119;51.788;8.824;2023-06-14T07:23:50;2.08;;;1.45;;
74612;SDS011;63119;51.788;8.824;2023-06-14T07:26:16;5.07;;;1.38;;
74612;SDS011;63119;51.788;8.824;2023-06-14T07:28:41;3.30;;;1.10;;
74612;SDS011;63119;51.788;8.824;2023-06-14T07:31:09;1.80;;;1.10;;
74612;SDS011;63119;51.788;8.824;2023-06-14T07:33:35;1.70;;;1.17;;
74612;SDS011;63119;51.788;8.824;2023-06-14T07:36:00;1.87;;;1.00;;
74612;SDS011;63119;51.788;8.824;2023-06-14T07:38:25;2.77;;;1.23;;
74612;SDS011;63119;51.788;8.824;2023-06-14T07:40:51;1.87;;;1.00;;
74612;SDS011;63119;51.788;8.824;2023-06-14T07:43:16;4.57;;;1.30;;
74612;SDS011;63119;51.788;8.824;2023-06-14T07:45:41;2.80;;;1.25;;
74612;SDS011;63119;51.788;8.824;2023-06-14T07:48:06;3.10;;;1.40;;
74612;SDS011;63119;51.788;8.824;2023-06-14T07:50:32;1.63;;;1.13;;
74612;SDS011;63119;51.788;8.824;2023-06-14T07:52:57;2.05;;;1.20;;
74612;SDS011;63119;51.788;8.824;2023-06-14T07:55:22;3.13;;;1.40;;
74612;SDS011;63119;51.788;8.824;2023-06-14T07:57:48;4.30;;;1.20;;
74612;SDS011;63119;51.788;8.824;2023-06-14T08:00:13;2.17;;;1.17;;
74612;SDS011;63119;51.788;8.824;2023-06-14T08:02:41;3.92;;;1.48;;
74612;SDS011;63119;51.788;8.824;2023-06-14T08:05:07;2.08;;;1.17;;
74612;SDS011;63119;51.788;8.824;2023-06-14T08:07:34;3.72;;;1.10;;
74612;SDS011;63119;51.788;8.824;2023-06-14T08:09:59;1.70;;;1.10;;
74612;SDS011;63119;51.788;8.824;2023-06-14T08:12:25;3.78;;;1.48;;
74612;SDS011;63119;51.788;8.824;2023-06-14T08:14:51;6.03;;;1.60;;
74612;SDS011;63119;51.788;8.824;2023-06-14T08:17:16;2.42;;;1.40;;
74612;SDS011;63119;51.788;8.824;2023-06-14T08:19:42;3.90;;;1.73;;
74612;SDS011;63119;51.788;8.824;2023-06-14T08:22:07;3.23;;;1.20;;
74612;SDS011;63119;51.788;8.824;2023-06-14T08:24:32;5.63;;;1.55;;
74612;SDS011;63119;51.788;8.824;2023-06-14T08:26:58;2.83;;;1.40;;
74612;SDS011;63119;51.788;8.824;2023-06-14T08:29:25;2.40;;;1.50;;
74612;SDS011;63119;51.788;8.824;2023-06-14T08:31:54;3.28;;;1.58;;
74612;SDS011;63119;51.788;8.824;2023-06-14T08:34:19;4.47;;;1.60;;
74612;SDS011;63119;51.788;8.824;2023-06-14T08:36:45;5.63;;;1.55;;
74612;SDS011;63119;51.788;8.824;2023-06-14T08:39:10;2.90;;;2.08;;
74612;SDS011;63119;51.788;8.824;2023-06-14T08:41:36;2.20;;;1.60;;
74612;SDS011;63119;51.788;8.824;2023-06-14T08:44:01;2.42;;;1.50;;
74612;SDS011;63119;51.788;8.824;2023-06-14T08:46:26;4.75;;;2.10;;
74612;SDS011;63119;51.788;8.824;2023-06-14T08:48:52;4.13;;;1.40;;
74612;SDS011;63119;51.788;8.824;2023-06-14T08:51:21;4.00;;;2.05;;
74612;SDS011;63119;51.788;8.824;2023-06-14T08:53:49;4.60;;;1.95;;
74612;SDS011;63119;51.788;8.824;2023-06-14T08:56:18;5.07;;;1.80;;
74612;SDS011;63119;51.788;8.824;2023-06-14T08:58:45;2.95;;;1.60;;
74612;SDS011;63119;51.788;8.824;2023-06-14T09:03:40;5.13;;;2.03;;
74612;SDS011;63119;51.788;8.824;2023-06-14T09:06:06;4.22;;;2.13;;
74612;SDS011;63119;51.788;8.824;2023-06-14T09:08:34;3.97;;;2.05;;
74612;SDS011;63119;51.788;8.824;2023-06-14T09:11:00;2.53;;;1.90;;
74612;SDS011;63119;51.788;8.824;2023-06-14T09:13:26;2.45;;;1.80;;
74612;SDS011;63119;51.788;8.824;2023-06-14T09:15:52;2.78;;;1.67;;
74612;SDS011;63119;51.788;8.824;2023-06-14T09:18:17;4.10;;;2.00;;
74612;SDS011;63119;51.788;8.824;2023-06-14T09:20:45;3.25;;;1.83;;
74612;SDS011;63119;51.788;8.824;2023-06-14T09:23:12;3.63;;;2.20;;
74612;SDS011;63119;51.788;8.824;2023-06-14T09:25:45;2.60;;;2.17;;
74612;SDS011;63119;51.788;8.824;2023-06-14T09:28:11;4.40;;;2.17;;
74612;SDS011;63119;51.788;8.824;2023-06-14T09:30:37;3.33;;;2.00;;
74612;SDS011;63119;51.788;8.824;2023-06-14T09:33:03;4.40;;;2.03;;
74612;SDS011;63119;51.788;8.824;2023-06-14T09:35:28;3.23;;;2.13;;
74612;SDS011;63119;51.788;8.824;2023-06-14T09:37:56;2.47;;;1.83;;
74612;SDS011;63119;51.788;8.824;2023-06-14T09:40:21;3.17;;;1.57;;
74612;SDS011;63119;51.788;8.824;2023-06-14T09:42:47;3.70;;;1.95;;
74612;SDS011;63119;51.788;8.824;2023-06-14T09:45:12;2.72;;;1.90;;
74612;SDS011;63119;51.788;8.824;2023-06-14T09:47:39;5.55;;;1.90;;
74612;SDS011;63119;51.788;8.824;2023-06-14T09:50:04;2.88;;;1.95;;
74612;SDS011;63119;51.788;8.824;2023-06-14T09:52:30;5.30;;;2.10;;
74612;SDS011;63119;51.788;8.824;2023-06-14T09:54:56;2.65;;;1.83;;
74612;SDS011;63119;51.788;8.824;2023-06-14T09:57:24;2.70;;;1.60;;
74612;SDS011;63119;51.788;8.824;2023-06-14T09:59:56;3.78;;;2.05;;
74612;SDS011;63119;51.788;8.824;2023-06-14T10:02:25;3.20;;;1.70;;
74612;SDS011;63119;51.788;8.824;2023-06-14T10:04:58;3.28;;;1.70;;
74612;SDS011;63119;51.788;8.824;2023-06-14T10:07:32;2.80;;;1.80;;
74612;SDS011;63119;51.788;8.824;2023-06-14T10:10:00;2.72;;;1.90;;
74612;SDS011;63119;51.788;8.824;2023-06-14T10:12:26;4.07;;;2.20;;
74612;SDS011;63119;51.788;8.824;2023-06-14T10:14:52;4.10;;;2.05;;
74612;SDS011;63119;51.788;8.824;2023-06-14T10:17:27;3.92;;;2.00;;
74612;SDS011;63119;51.788;8.824;2023-06-14T10:20:16;3.15;;;2.17;;
74612;SDS011;63119;51.788;8.824;2023-06-14T10:22:50;2.90;;;1.90;;
74612;SDS011;63119;51.788;8.824;2023-06-14T10:25:27;3.13;;;1.83;;
74612;SDS011;63119;51.788;8.824;2023-06-14T10:28:14;2.42;;;1.80;;
74612;SDS011;63119;51.788;8.824;2023-06-14T10:30:58;4.70;;;1.70;;
74612;SDS011;63119;51.788;8.824;2023-06-14T10:33:29;2.85;;;1.90;;
74612;SDS011;63119;51.788;8.824;2023-06-14T10:38:56;3.80;;;1.98;;
74612;SDS011;63119;51.788;8.824;2023-06-14T10:41:29;2.58;;;1.73;;
74612;SDS011;63119;51.788;8.824;2023-06-14T10:46:38;10.00;;;2.22;;
74612;SDS011;63119;51.788;8.824;2023-06-14T10:49:16;3.97;;;2.10;;
74612;SDS011;63119;51.788;8.824;2023-06-14T10:51:44;2.22;;;1.70;;
74612;SDS011;63119;51.788;8.824;2023-06-14T10:54:16;3.72;;;1.80;;
74612;SDS011;63119;51.788;8.824;2023-06-14T10:56:48;3.20;;;1.92;;
74612;SDS011;63119;51.788;8.824;2023-06-14T10:59:16;2.83;;;1.90;;
74612;SDS011;63119;51.788;8.824;2023-06-14T11:01:58;2.78;;;1.83;;
74612;SDS011;63119;51.788;8.824;2023-06-14T11:04:53;4.13;;;2.28;;
74612;SDS011;63119;51.788;8.824;2023-06-14T11:10:39;5.10;;;1.83;;
74612;SDS011;63119;51.788;8.824;2023-06-14T11:13:06;2.78;;;2.00;;
74612;SDS011;63119;51.788;8.824;2023-06-14T11:15:35;3.97;;;2.05;;
74612;SDS011;63119;51.788;8.824;2023-06-14T11:18:05;3.47;;;2.25;;
74612;SDS011;63119;51.788;8.824;2023-06-14T11:20:31;3.10;;;2.20;;
74612;SDS011;63119;51.788;8.824;2023-06-14T11:22:58;3.72;;;2.10;;
74612;SDS011;63119;51.788;8.824;2023-06-14T11:25:24;3.42;;;1.67;;
74612;SDS011;63119;51.788;8.824;2023-06-14T11:27:51;4.53;;;2.00;;
74612;SDS011;63119;51.788;8.824;2023-06-14T11:30:16;6.47;;;1.90;;
74612;SDS011;63119;51.788;8.824;2023-06-14T11:32:42;4.00;;;1.65;;
74612;SDS011;63119;51.788;8.824;2023-06-14T11:35:10;4.20;;;2.03;;
74612;SDS011;63119;51.788;8.824;2023-06-14T11:37:36;3.08;;;2.03;;
74612;SDS011;63119;51.788;8.824;2023-06-14T11:40:06;3.35;;;1.90;;
74612;SDS011;63119;51.788;8.824;2023-06-14T11:42:38;6.55;;;2.10;;
74612;SDS011;63119;51.788;8.824;2023-06-14T11:45:08;3.45;;;1.83;;
74612;SDS011;63119;51.788;8.824;2023-06-14T11:47:35;5.32;;;1.80;;
74612;SDS011;63119;51.788;8.824;2023-06-14T11:50:01;3.80;;;1.85;;
74612;SDS011;63119;51.788;8.824;2023-06-14T11:52:28;2.90;;;1.88;;
74612;SDS011;63119;51.788;8.824;2023-06-14T11:54:53;4.25;;;2.28;;
74612;SDS011;63119;51.788;8.824;2023-06-14T11:57:19;3.47;;;2.08;;
74612;SDS011;63119;51.788;8.824;2023-06-14T11:59:45;2.80;;;1.80;;
74612;SDS011;63119;51.788;8.824;2023-06-14T12:02:16;3.85;;;1.65;;
74612;SDS011;63119;51.788;8.824;2023-06-14T12:04:43;2.53;;;1.75;;
74612;SDS011;63119;51.788;8.824;2023-06-14T12:07:09;3.03;;;1.70;;
74612;SDS011;63119;51.788;8.824;2023-06-14T12:10:25;3.67;;;1.90;;
74612;SDS011;63119;51.788;8.824;2023-06-14T12:12:25;4.28;;;2.00;;
74612;SDS011;63119;51.788;8.824;2023-06-14T12:14:51;3.63;;;2.00;;
74612;SDS011;63119;51.788;8.824;2023-06-14T12:17:18;3.47;;;1.95;;
74612;SDS011;63119;51.788;8.824;2023-06-14T12:19:44;2.88;;;2.03;;
74612;SDS011;63119;51.788;8.824;2023-06-14T12:22:11;2.72;;;1.90;;
74612;SDS011;63119;51.788;8.824;2023-06-14T12:24:37;3.40;;;1.80;;
74612;SDS011;63119;51.788;8.824;2023-06-14T12:27:03;3.35;;;1.60;;
74612;SDS011;63119;51.788;8.824;2023-06-14T12:29:29;5.05;;;2.03;;
74612;SDS011;63119;51.788;8.824;2023-06-14T12:31:55;3.05;;;1.80;;
74612;SDS011;63119;51.788;8.824;2023-06-14T12:34:22;8.55;;;2.38;;
74612;SDS011;63119;51.788;8.824;2023-06-14T12:36:48;2.72;;;1.80;;
74612;SDS011;63119;51.788;8.824;2023-06-14T12:39:14;3.67;;;1.70;;
74612;SDS011;63119;51.788;8.824;2023-06-14T12:41:40;2.57;;;1.50;;
74612;SDS011;63119;51.788;8.824;2023-06-14T12:44:06;3.08;;;1.60;;
74612;SDS011;63119;51.788;8.824;2023-06-14T12:46:32;2.40;;;1.95;;
74612;SDS011;63119;51.788;8.824;2023-06-14T12:48:58;2.70;;;1.60;;
74612;SDS011;63119;51.788;8.824;2023-06-14T12:51:23;4.07;;;2.00;;
74612;SDS011;63119;51.788;8.824;2023-06-14T12:53:50;3.33;;;2.00;;
74612;SDS011;63119;51.788;8.824;2023-06-14T12:56:15;2.70;;;1.55;;
74612;SDS011;63119;51.788;8.824;2023-06-14T12:58:41;3.07;;;1.70;;
74612;SDS011;63119;51.788;8.824;2023-06-14T13:01:06;2.60;;;1.88;;
74612;SDS011;63119;51.788;8.824;2023-06-14T13:03:32;3.17;;;1.98;;
74612;SDS011;63119;51.788;8.824;2023-06-14T13:05:58;2.78;;;1.50;;
74612;SDS011;63119;51.788;8.824;2023-06-14T13:08:24;3.78;;;1.45;;
74612;SDS011;63119;51.788;8.824;2023-06-14T13:10:49;3.97;;;1.50;;
74612;SDS011;63119;51.788;8.824;2023-06-14T13:13:14;6.13;;;2.33;;
74612;SDS011;63119;51.788;8.824;2023-06-14T13:15:39;2.53;;;1.50;;
74612;SDS011;63119;51.788;8.824;2023-06-14T13:18:05;3.53;;;1.63;;
74612;SDS011;63119;51.788;8.824;2023-06-14T13:20:30;2.38;;;1.88;;
74612;SDS011;63119;51.788;8.824;2023-06-14T13:22:56;2.00;;;1.30;;
74612;SDS011;63119;51.788;8.824;2023-06-14T13:25:21;4.80;;;1.50;;
74612;SDS011;63119;51.788;8.824;2023-06-14T13:27:47;1.60;;;1.30;;
74612;SDS011;63119;51.788;8.824;2023-06-14T13:30:12;3.72;;;1.73;;
74612;SDS011;63119;51.788;8.824;2023-06-14T13:32:38;2.38;;;1.63;;
74612;SDS011;63119;51.788;8.824;2023-06-14T13:35:03;3.90;;;1.40;;
74612;SDS011;63119;51.788;8.824;2023-06-14T13:37:29;2.33;;;1.25;;
74612;SDS011;63119;51.788;8.824;2023-06-14T13:39:54;2.65;;;1.38;;
74612;SDS011;63119;51.788;8.824;2023-06-14T13:42:20;3.58;;;1.50;;
74612;SDS011;63119;51.788;8.824;2023-06-14T13:44:45;2.65;;;1.55;;
74612;SDS011;63119;51.788;8.824;2023-06-14T13:47:11;3.10;;;1.60;;
74612;SDS011;63119;51.788;8.824;2023-06-14T13:49:36;2.80;;;1.40;;
74612;SDS011;63119;51.788;8.824;2023-06-14T13:52:01;1.98;;;1.40;;
74612;SDS011;63119;51.788;8.824;2023-06-14T13:54:27;2.55;;;1.30;;
74612;SDS011;63119;51.788;8.824;2023-06-14T13:56:53;2.22;;;1.40;;
74612;SDS011;63119;51.788;8.824;2023-06-14T13:59:18;2.20;;;1.30;;
74612;SDS011;63119;51.788;8.824;2023-06-14T14:01:43;1.97;;;1.40;;
74612;SDS011;63119;51.788;8.824;2023-06-14T14:04:09;3.40;;;1.40;;
74612;SDS011;63119;51.788;8.824;2023-06-14T14:06:34;3.80;;;1.50;;
74612;SDS011;63119;51.788;8.824;2023-06-14T14:09:00;3.58;;;1.42;;
74612;SDS011;63119;51.788;8.824;2023-06-14T14:11:25;2.38;;;1.38;;
74612;SDS011;63119;51.788;8.824;2023-06-14T14:13:51;3.50;;;1.50;;
74612;SDS011;63119;51.788;8.824;2023-06-14T14:16:16;4.40;;;1.67;;
74612;SDS011;63119;51.788;8.824;2023-06-14T14:18:41;2.73;;;1.57;;
74612;SDS011;63119;51.788;8.824;2023-06-14T14:21:07;4.40;;;1.55;;
74612;SDS011;63119;51.788;8.824;2023-06-14T14:23:32;3.57;;;1.60;;
74612;SDS011;63119;51.788;8.824;2023-06-14T14:25:58;2.23;;;1.40;;
74612;SDS011;63119;51.788;8.824;2023-06-14T14:28:23;3.70;;;1.60;;
74612;SDS011;63119;51.788;8.824;2023-06-14T14:30:48;3.60;;;1.77;;
74612;SDS011;63119;51.788;8.824;2023-06-14T14:33:14;2.08;;;1.50;;
74612;SDS011;63119;51.788;8.824;2023-06-14T14:35:44;2.78;;;1.70;;
74612;SDS011;63119;51.788;8.824;2023-06-14T14:38:13;5.00;;;1.52;;
74612;SDS011;63119;51.788;8.824;2023-06-14T14:40:40;2.20;;;1.25;;
74612;SDS011;63119;51.788;8.824;2023-06-14T14:43:06;3.63;;;1.70;;
74612;SDS011;63119;51.788;8.824;2023-06-14T14:45:31;2.35;;;1.67;;
74612;SDS011;63119;51.788;8.824;2023-06-14T14:47:56;2.40;;;1.50;;
74612;SDS011;63119;51.788;8.824;2023-06-14T14:50:22;2.85;;;1.92;;
74612;SDS011;63119;51.788;8.824;2023-06-14T14:52:47;2.92;;;1.55;;
74612;SDS011;63119;51.788;8.824;2023-06-14T14:55:13;2.60;;;1.67;;
74612;SDS011;63119;51.788;8.824;2023-06-14T14:57:38;2.15;;;1.50;;
74612;SDS011;63119;51.788;8.824;2023-06-14T15:00:04;4.90;;;1.50;;